sensor_id;sensor_type;location;lat;lon;timestamp;temperature;humidity
21312;DHT22;18076;52.154;10.570;2023-03-23T00:00:26;13.30;99.90
21312;DHT22;18076;52.154;10.570;2023-03-23T00:02:54;13.30;99.90
21312;DHT22;18076;52.154;10.570;2023-03-23T00:05:20;13.30;99.90
21312;DHT22;18076;52.154;10.570;2023-03-23T00:07:45;13.30;99.90
21312;DHT22;18076;52.154;10.570;2023-03-23T00:10:17;13.40;99.90
21312;DHT22;18076;52.154;10.570;2023-03-23T00:12:42;13.40;99.90
21312;DHT22;18076;52.154;10.570;2023-03-23T00:15:10;13.40;99.90
21312;DHT22;18076;52.154;10.570;2023-03-23T00:17:38;13.40;99.90
21312;DHT22;18076;52.154;10.570;2023-03-23T00:20:06;13.40;99.90
21312;DHT22;18076;52.154;10.570;2023-03-23T00:22:32;13.40;99.90
21312;DHT22;18076;52.154;10.570;2023-03-23T00:25:03;13.40;99.90
21312;DHT22;18076;52.154;10.570;2023-03-23T00:27:29;13.40;99.90
21312;DHT22;18076;52.154;10.570;2023-03-23T00:29:54;13.40;99.90
21312;DHT22;18076;52.154;10.570;2023-03-23T00:32:21;13.40;99.90
21312;DHT22;18076;52.154;10.570;2023-03-23T00:34:52;13.40;99.90
21312;DHT22;18076;52.154;10.570;2023-03-23T00:37:18;13.40;99.90
21312;DHT22;18076;52.154;10.570;2023-03-23T00:39:44;13.50;99.90
21312;DHT22;18076;52.154;10.570;2023-03-23T00:42:12;13.50;99.90
21312;DHT22;18076;52.154;10.570;2023-03-23T00:44:38;13.40;99.90
21312;DHT22;18076;52.154;10.570;2023-03-23T00:47:05;13.40;99.90
21312;DHT22;18076;52.154;10.570;2023-03-23T00:49:31;13.40;99.90
21312;DHT22;18076;52.154;10.570;2023-03-23T00:52:00;13.50;99.90
21312;DHT22;18076;52.154;10.570;2023-03-23T00:54:25;13.50;99.90
21312;DHT22;18076;52.154;10.570;2023-03-23T00:56:51;13.40;99.90
21312;DHT22;18076;52.154;10.570;2023-03-23T00:59:17;13.30;99.90
21312;DHT22;18076;52.154;10.570;2023-03-23T01:01:43;13.10;99.90
21312;DHT22;18076;52.154;10.570;2023-03-23T01:04:09;12.90;99.90
21312;DHT22;18076;52.154;10.570;2023-03-23T01:06:38;12.70;99.90
21312;DHT22;18076;52.154;10.570;2023-03-23T01:09:04;12.60;99.90
21312;DHT22;18076;52.154;10.570;2023-03-23T01:11:31;12.50;99.90
21312;DHT22;18076;52.154;10.570;2023-03-23T01:13:57;12.40;99.90
21312;DHT22;18076;52.154;10.570;2023-03-23T01:16:22;12.40;99.90
21312;DHT22;18076;52.154;10.570;2023-03-23T01:18:48;12.30;99.90
21312;DHT22;18076;52.154;10.570;2023-03-23T01:21:14;12.30;99.90
21312;DHT22;18076;52.154;10.570;2023-03-23T01:23:41;12.30;99.90
21312;DHT22;18076;52.154;10.570;2023-03-23T01:26:07;12.30;99.90
21312;DHT22;18076;52.154;10.570;2023-03-23T01:28:34;12.30;99.90
21312;DHT22;18076;52.154;10.570;2023-03-23T01:31:12;12.30;99.90
21312;DHT22;18076;52.154;10.570;2023-03-23T01:33:38;12.30;99.90
21312;DHT22;18076;52.154;10.570;2023-03-23T01:36:04;12.30;99.90
21312;DHT22;18076;52.154;10.570;2023-03-23T01:38:30;12.20;99.90
21312;DHT22;18076;52.154;10.570;2023-03-23T01:40:56;12.30;99.90
21312;DHT22;18076;52.154;10.570;2023-03-23T01:43:22;12.20;99.90
21312;DHT22;18076;52.154;10.570;2023-03-23T01:45:47;12.20;99.90
21312;DHT22;18076;52.154;10.570;2023-03-23T01:51:01;12.20;99.90
21312;DHT22;18076;52.154;10.570;2023-03-23T01:53:25;12.10;99.90
21312;DHT22;18076;52.154;10.570;2023-03-23T01:55:52;12.20;99.90
21312;DHT22;18076;52.154;10.570;2023-03-23T01:58:19;12.10;99.90
21312;DHT22;18076;52.154;10.570;2023-03-23T02:00:46;12.20;99.90
21312;DHT22;18076;52.154;10.570;2023-03-23T02:03:14;12.20;99.90
21312;DHT22;18076;52.154;10.570;2023-03-23T02:05:42;12.20;99.90
21312;DHT22;18076;52.154;10.570;2023-03-23T02:08:08;12.10;99.90
21312;DHT22;18076;52.154;10.570;2023-03-23T02:10:35;12.10;99.90
21312;DHT22;18076;52.154;10.570;2023-03-23T02:13:01;12.10;99.90
21312;DHT22;18076;52.154;10.570;2023-03-23T02:15:27;12.10;99.90
21312;DHT22;18076;52.154;10.570;2023-03-23T02:17:59;12.20;99.90
21312;DHT22;18076;52.154;10.570;2023-03-23T02:28:38;12.20;99.90
21312;DHT22;18076;52.154;10.570;2023-03-23T02:33:40;12.20;99.90
21312;DHT22;18076;52.154;10.570;2023-03-23T02:36:12;12.20;99.90
21312;DHT22;18076;52.154;10.570;2023-03-23T02:41:07;12.20;99.90
21312;DHT22;18076;52.154;10.570;2023-03-23T02:43:36;12.30;99.90
21312;DHT22;18076;52.154;10.570;2023-03-23T02:46:04;12.20;99.90
21312;DHT22;18076;52.154;10.570;2023-03-23T02:48:31;12.20;99.90
21312;DHT22;18076;52.154;10.570;2023-03-23T02:50:58;12.20;99.90
21312;DHT22;18076;52.154;10.570;2023-03-23T02:53:25;12.20;99.90
21312;DHT22;18076;52.154;10.570;2023-03-23T02:55:52;12.20;99.90
21312;DHT22;18076;52.154;10.570;2023-03-23T02:58:18;12.20;99.90
21312;DHT22;18076;52.154;10.570;2023-03-23T03:00:45;12.20;99.90
21312;DHT22;18076;52.154;10.570;2023-03-23T03:03:15;12.20;99.90
21312;DHT22;18076;52.154;10.570;2023-03-23T03:11:08;12.10;99.90
21312;DHT22;18076;52.154;10.570;2023-03-23T03:18:39;12.10;99.90
21312;DHT22;18076;52.154;10.570;2023-03-23T03:21:08;12.10;99.90
21312;DHT22;18076;52.154;10.570;2023-03-23T03:23:38;12.10;99.90
21312;DHT22;18076;52.154;10.570;2023-03-23T03:26:06;12.10;99.90
21312;DHT22;18076;52.154;10.570;2023-03-23T03:28:34;12.10;99.90
21312;DHT22;18076;52.154;10.570;2023-03-23T03:31:01;12.10;99.90
21312;DHT22;18076;52.154;10.570;2023-03-23T03:33:28;12.10;99.90
21312;DHT22;18076;52.154;10.570;2023-03-23T03:36:01;12.10;99.90
21312;DHT22;18076;52.154;10.570;2023-03-23T03:38:27;12.10;99.90
21312;DHT22;18076;52.154;10.570;2023-03-23T03:40:53;12.00;99.90
21312;DHT22;18076;52.154;10.570;2023-03-23T03:43:19;12.10;99.90
21312;DHT22;18076;52.154;10.570;2023-03-23T03:45:45;12.00;99.90
21312;DHT22;18076;52.154;10.570;2023-03-23T03:48:10;12.00;99.90
21312;DHT22;18076;52.154;10.570;2023-03-23T03:50:36;12.00;99.90
21312;DHT22;18076;52.154;10.570;2023-03-23T03:53:02;11.90;99.90
21312;DHT22;18076;52.154;10.570;2023-03-23T03:55:28;11.90;99.90
21312;DHT22;18076;52.154;10.570;2023-03-23T03:57:54;11.80;99.90
21312;DHT22;18076;52.154;10.570;2023-03-23T04:00:20;11.80;99.90
21312;DHT22;18076;52.154;10.570;2023-03-23T04:02:47;11.80;99.90
21312;DHT22;18076;52.154;10.570;2023-03-23T04:05:16;11.80;99.90
21312;DHT22;18076;52.154;10.570;2023-03-23T04:07:41;11.70;99.90
21312;DHT22;18076;52.154;10.570;2023-03-23T04:10:07;11.70;99.90
21312;DHT22;18076;52.154;10.570;2023-03-23T04:12:34;11.70;99.90
21312;DHT22;18076;52.154;10.570;2023-03-23T04:15:00;11.60;99.90
21312;DHT22;18076;52.154;10.570;2023-03-23T04:17:25;11.60;99.90
21312;DHT22;18076;52.154;10.570;2023-03-23T04:19:51;11.60;99.90
21312;DHT22;18076;52.154;10.570;2023-03-23T04:22:17;11.50;99.90
21312;DHT22;18076;52.154;10.570;2023-03-23T04:24:42;11.50;99.90
21312;DHT22;18076;52.154;10.570;2023-03-23T04:27:08;11.50;99.90
21312;DHT22;18076;52.154;10.570;2023-03-23T04:29:33;11.40;99.90
21312;DHT22;18076;52.154;10.570;2023-03-23T04:31:59;11.40;99.90
21312;DHT22;18076;52.154;10.570;2023-03-23T04:34:27;11.40;99.90
21312;DHT22;18076;52.154;10.570;2023-03-23T04:36:52;11.30;99.90
21312;DHT22;18076;52.154;10.570;2023-03-23T04:39:18;11.30;99.90
21312;DHT22;18076;52.154;10.570;2023-03-23T04:41:44;11.30;99.90
21312;DHT22;18076;52.154;10.570;2023-03-23T04:44:11;11.30;99.90
21312;DHT22;18076;52.154;10.570;2023-03-23T04:46:42;11.30;99.90
21312;DHT22;18076;52.154;10.570;2023-03-23T04:49:10;11.20;99.90
21312;DHT22;18076;52.154;10.570;2023-03-23T04:51:36;11.20;99.90
21312;DHT22;18076;52.154;10.570;2023-03-23T04:54:04;11.20;99.90
21312;DHT22;18076;52.154;10.570;2023-03-23T04:56:29;11.20;99.90
21312;DHT22;18076;52.154;10.570;2023-03-23T04:58:55;11.20;99.90
21312;DHT22;18076;52.154;10.570;2023-03-23T05:01:21;11.20;99.90
21312;DHT22;18076;52.154;10.570;2023-03-23T05:03:46;11.10;99.90
21312;DHT22;18076;52.154;10.570;2023-03-23T05:06:12;11.20;99.90
21312;DHT22;18076;52.154;10.570;2023-03-23T05:08:37;11.10;99.90
21312;DHT22;18076;52.154;10.570;2023-03-23T05:11:04;11.20;99.90
21312;DHT22;18076;52.154;10.570;2023-03-23T05:13:31;11.10;99.90
21312;DHT22;18076;52.154;10.570;2023-03-23T05:15:56;11.20;99.90
21312;DHT22;18076;52.154;10.570;2023-03-23T05:18:22;11.10;99.90
21312;DHT22;18076;52.154;10.570;2023-03-23T05:20:48;11.20;99.90
21312;DHT22;18076;52.154;10.570;2023-03-23T05:23:14;11.10;99.90
21312;DHT22;18076;52.154;10.570;2023-03-23T05:25:40;11.10;99.90
21312;DHT22;18076;52.154;10.570;2023-03-23T05:28:09;11.00;99.90
21312;DHT22;18076;52.154;10.570;2023-03-23T05:30:36;11.00;99.90
21312;DHT22;18076;52.154;10.570;2023-03-23T05:33:01;11.00;99.90
21312;DHT22;18076;52.154;10.570;2023-03-23T05:35:28;11.00;99.90
21312;DHT22;18076;52.154;10.570;2023-03-23T05:37:53;11.00;99.90
21312;DHT22;18076;52.154;10.570;2023-03-23T05:40:21;11.00;99.90
21312;DHT22;18076;52.154;10.570;2023-03-23T05:42:47;11.10;99.90
21312;DHT22;18076;52.154;10.570;2023-03-23T05:45:13;11.20;99.90
21312;DHT22;18076;52.154;10.570;2023-03-23T05:47:39;11.20;99.90
21312;DHT22;18076;52.154;10.570;2023-03-23T05:50:05;11.20;99.90
21312;DHT22;18076;52.154;10.570;2023-03-23T05:52:32;11.20;99.90
21312;DHT22;18076;52.154;10.570;2023-03-23T05:54:58;11.20;99.90
21312;DHT22;18076;52.154;10.570;2023-03-23T05:57:24;11.20;99.90
21312;DHT22;18076;52.154;10.570;2023-03-23T05:59:49;11.30;99.90
21312;DHT22;18076;52.154;10.570;2023-03-23T06:02:15;11.30;99.90
21312;DHT22;18076;52.154;10.570;2023-03-23T06:04:41;11.40;99.90
21312;DHT22;18076;52.154;10.570;2023-03-23T06:07:07;11.40;99.90
21312;DHT22;18076;52.154;10.570;2023-03-23T06:09:33;11.40;99.90
21312;DHT22;18076;52.154;10.570;2023-03-23T06:11:58;11.40;99.90
21312;DHT22;18076;52.154;10.570;2023-03-23T06:14:24;11.50;99.90
21312;DHT22;18076;52.154;10.570;2023-03-23T06:16:49;11.50;99.90
21312;DHT22;18076;52.154;10.570;2023-03-23T06:19:15;11.50;99.90
21312;DHT22;18076;52.154;10.570;2023-03-23T06:21:41;11.60;99.90
21312;DHT22;18076;52.154;10.570;2023-03-23T06:24:08;11.60;99.90
21312;DHT22;18076;52.154;10.570;2023-03-23T06:26:35;11.60;99.90
21312;DHT22;18076;52.154;10.570;2023-03-23T06:29:02;11.60;99.90
21312;DHT22;18076;52.154;10.570;2023-03-23T06:31:27;11.60;99.90
21312;DHT22;18076;52.154;10.570;2023-03-23T06:33:53;11.60;99.90
21312;DHT22;18076;52.154;10.570;2023-03-23T06:36:19;11.70;99.90
21312;DHT22;18076;52.154;10.570;2023-03-23T06:38:44;11.70;99.90
21312;DHT22;18076;52.154;10.570;2023-03-23T06:41:10;11.80;99.90
21312;DHT22;18076;52.154;10.570;2023-03-23T06:43:36;11.80;99.90
21312;DHT22;18076;52.154;10.570;2023-03-23T06:46:05;11.90;99.90
21312;DHT22;18076;52.154;10.570;2023-03-23T06:48:31;11.90;99.90
21312;DHT22;18076;52.154;10.570;2023-03-23T06:50:57;11.80;99.90
21312;DHT22;18076;52.154;10.570;2023-03-23T06:53:23;11.80;99.90
21312;DHT22;18076;52.154;10.570;2023-03-23T06:55:49;11.80;99.90
21312;DHT22;18076;52.154;10.570;2023-03-23T06:58:14;11.80;99.90
21312;DHT22;18076;52.154;10.570;2023-03-23T07:00:40;11.80;99.90
21312;DHT22;18076;52.154;10.570;2023-03-23T07:03:06;11.70;99.90
21312;DHT22;18076;52.154;10.570;2023-03-23T07:05:32;11.70;99.90
21312;DHT22;18076;52.154;10.570;2023-03-23T07:07:58;11.80;99.90
21312;DHT22;18076;52.154;10.570;2023-03-23T07:10:23;11.80;99.90
21312;DHT22;18076;52.154;10.570;2023-03-23T07:12:50;11.80;99.90
21312;DHT22;18076;52.154;10.570;2023-03-23T07:15:15;11.80;99.90
21312;DHT22;18076;52.154;10.570;2023-03-23T07:17:41;11.90;99.90
21312;DHT22;18076;52.154;10.570;2023-03-23T07:20:07;11.90;99.90
21312;DHT22;18076;52.154;10.570;2023-03-23T07:22:32;12.00;99.90
21312;DHT22;18076;52.154;10.570;2023-03-23T07:24:58;12.10;99.90
21312;DHT22;18076;52.154;10.570;2023-03-23T07:27:24;12.20;99.90
21312;DHT22;18076;52.154;10.570;2023-03-23T07:29:49;12.40;99.90
21312;DHT22;18076;52.154;10.570;2023-03-23T07:32:15;12.50;99.90
21312;DHT22;18076;52.154;10.570;2023-03-23T07:34:41;12.60;99.90
21312;DHT22;18076;52.154;10.570;2023-03-23T07:37:06;12.50;99.90
21312;DHT22;18076;52.154;10.570;2023-03-23T07:39:32;12.40;99.90
21312;DHT22;18076;52.154;10.570;2023-03-23T07:41:58;12.40;99.90
21312;DHT22;18076;52.154;10.570;2023-03-23T07:44:24;12.40;99.90
21312;DHT22;18076;52.154;10.570;2023-03-23T07:46:50;12.30;99.90
21312;DHT22;18076;52.154;10.570;2023-03-23T07:49:16;12.30;99.90
21312;DHT22;18076;52.154;10.570;2023-03-23T07:51:42;12.30;99.90
21312;DHT22;18076;52.154;10.570;2023-03-23T07:54:08;12.30;99.90
21312;DHT22;18076;52.154;10.570;2023-03-23T07:56:34;12.30;99.90
21312;DHT22;18076;52.154;10.570;2023-03-23T07:59:00;12.40;99.90
21312;DHT22;18076;52.154;10.570;2023-03-23T08:01:26;12.40;99.90
21312;DHT22;18076;52.154;10.570;2023-03-23T08:03:52;12.50;99.90
21312;DHT22;18076;52.154;10.570;2023-03-23T08:06:20;12.50;99.90
21312;DHT22;18076;52.154;10.570;2023-03-23T08:08:46;12.70;99.90
21312;DHT22;18076;52.154;10.570;2023-03-23T08:11:15;12.70;99.90
21312;DHT22;18076;52.154;10.570;2023-03-23T08:13:41;12.80;99.90
21312;DHT22;18076;52.154;10.570;2023-03-23T08:16:07;12.90;99.90
21312;DHT22;18076;52.154;10.570;2023-03-23T08:18:35;13.00;99.90
21312;DHT22;18076;52.154;10.570;2023-03-23T08:21:00;13.10;99.90
21312;DHT22;18076;52.154;10.570;2023-03-23T08:23:26;13.10;99.90
21312;DHT22;18076;52.154;10.570;2023-03-23T08:25:52;13.20;99.90
21312;DHT22;18076;52.154;10.570;2023-03-23T08:28:18;13.20;99.90
21312;DHT22;18076;52.154;10.570;2023-03-23T08:30:44;13.40;99.90
21312;DHT22;18076;52.154;10.570;2023-03-23T08:33:10;13.30;99.90
21312;DHT22;18076;52.154;10.570;2023-03-23T08:35:36;13.30;99.90
21312;DHT22;18076;52.154;10.570;2023-03-23T08:38:01;13.50;99.90
21312;DHT22;18076;52.154;10.570;2023-03-23T08:40:28;13.50;99.90
21312;DHT22;18076;52.154;10.570;2023-03-23T08:42:54;13.50;99.90
21312;DHT22;18076;52.154;10.570;2023-03-23T08:45:21;13.70;99.90
21312;DHT22;18076;52.154;10.570;2023-03-23T08:47:47;13.80;99.90
21312;DHT22;18076;52.154;10.570;2023-03-23T08:50:20;13.70;99.90
21312;DHT22;18076;52.154;10.570;2023-03-23T08:52:46;13.70;99.90
21312;DHT22;18076;52.154;10.570;2023-03-23T08:55:12;13.80;99.90
21312;DHT22;18076;52.154;10.570;2023-03-23T08:57:38;13.70;99.90
21312;DHT22;18076;52.154;10.570;2023-03-23T09:00:04;13.60;99.90
21312;DHT22;18076;52.154;10.570;2023-03-23T09:02:46;13.60;99.90
21312;DHT22;18076;52.154;10.570;2023-03-23T09:05:13;13.60;99.90
21312;DHT22;18076;52.154;10.570;2023-03-23T09:07:39;13.70;99.90
21312;DHT22;18076;52.154;10.570;2023-03-23T09:10:05;13.80;99.90
21312;DHT22;18076;52.154;10.570;2023-03-23T09:12:31;13.70;99.90
21312;DHT22;18076;52.154;10.570;2023-03-23T09:14:56;13.70;99.90
21312;DHT22;18076;52.154;10.570;2023-03-23T09:17:22;13.80;99.90
21312;DHT22;18076;52.154;10.570;2023-03-23T09:19:48;13.90;99.90
21312;DHT22;18076;52.154;10.570;2023-03-23T09:22:13;14.00;99.90
21312;DHT22;18076;52.154;10.570;2023-03-23T09:24:40;14.00;99.90
21312;DHT22;18076;52.154;10.570;2023-03-23T09:27:06;14.00;99.90
21312;DHT22;18076;52.154;10.570;2023-03-23T09:29:31;14.10;99.90
21312;DHT22;18076;52.154;10.570;2023-03-23T09:31:57;14.10;99.90
21312;DHT22;18076;52.154;10.570;2023-03-23T09:34:23;14.00;99.90
21312;DHT22;18076;52.154;10.570;2023-03-23T09:36:49;14.00;99.90
21312;DHT22;18076;52.154;10.570;2023-03-23T09:39:15;14.00;99.90
21312;DHT22;18076;52.154;10.570;2023-03-23T09:46:58;14.10;99.90
21312;DHT22;18076;52.154;10.570;2023-03-23T09:49:32;14.10;99.90
21312;DHT22;18076;52.154;10.570;2023-03-23T09:52:04;14.00;99.90
21312;DHT22;18076;52.154;10.570;2023-03-23T09:54:34;14.10;99.90
21312;DHT22;18076;52.154;10.570;2023-03-23T09:57:04;14.10;99.90
21312;DHT22;18076;52.154;10.570;2023-03-23T10:02:10;14.20;99.90
21312;DHT22;18076;52.154;10.570;2023-03-23T10:07:10;14.30;99.90
21312;DHT22;18076;52.154;10.570;2023-03-23T10:09:37;14.30;99.90
21312;DHT22;18076;52.154;10.570;2023-03-23T10:12:19;14.30;99.90
21312;DHT22;18076;52.154;10.570;2023-03-23T10:15:09;14.40;99.90
21312;DHT22;18076;52.154;10.570;2023-03-23T10:17:33;14.40;99.90
21312;DHT22;18076;52.154;10.570;2023-03-23T10:20:05;14.50;99.90
21312;DHT22;18076;52.154;10.570;2023-03-23T10:22:36;14.50;99.90
21312;DHT22;18076;52.154;10.570;2023-03-23T10:27:42;14.50;99.90
21312;DHT22;18076;52.154;10.570;2023-03-23T10:32:39;14.70;99.90
21312;DHT22;18076;52.154;10.570;2023-03-23T10:35:07;14.80;99.90
21312;DHT22;18076;52.154;10.570;2023-03-23T10:37:39;14.80;99.90
21312;DHT22;18076;52.154;10.570;2023-03-23T10:40:12;14.90;99.90
21312;DHT22;18076;52.154;10.570;2023-03-23T10:42:40;15.10;99.90
21312;DHT22;18076;52.154;10.570;2023-03-23T10:45:22;15.20;99.90
21312;DHT22;18076;52.154;10.570;2023-03-23T10:47:53;15.30;99.90
21312;DHT22;18076;52.154;10.570;2023-03-23T10:50:30;15.30;99.90
21312;DHT22;18076;52.154;10.570;2023-03-23T10:52:57;15.40;99.90
21312;DHT22;18076;52.154;10.570;2023-03-23T10:55:23;15.50;99.90
21312;DHT22;18076;52.154;10.570;2023-03-23T10:58:01;15.50;99.90
21312;DHT22;18076;52.154;10.570;2023-03-23T11:00:27;15.50;99.90
21312;DHT22;18076;52.154;10.570;2023-03-23T11:05:23;15.60;99.90
21312;DHT22;18076;52.154;10.570;2023-03-23T11:07:50;15.60;99.90
21312;DHT22;18076;52.154;10.570;2023-03-23T11:10:21;15.50;99.90
21312;DHT22;18076;52.154;10.570;2023-03-23T11:12:47;15.30;99.90
21312;DHT22;18076;52.154;10.570;2023-03-23T11:17:55;15.20;99.90
21312;DHT22;18076;52.154;10.570;2023-03-23T11:20:21;15.20;99.90
21312;DHT22;18076;52.154;10.570;2023-03-23T11:22:47;15.10;99.90
21312;DHT22;18076;52.154;10.570;2023-03-23T11:25:13;15.00;99.90
21312;DHT22;18076;52.154;10.570;2023-03-23T11:27:39;15.00;99.90
21312;DHT22;18076;52.154;10.570;2023-03-23T11:30:10;15.30;99.90
21312;DHT22;18076;52.154;10.570;2023-03-23T11:32:36;15.70;99.90
21312;DHT22;18076;52.154;10.570;2023-03-23T11:35:03;16.00;99.90
21312;DHT22;18076;52.154;10.570;2023-03-23T11:42:44;15.70;99.90
21312;DHT22;18076;52.154;10.570;2023-03-23T11:45:21;15.60;99.90
21312;DHT22;18076;52.154;10.570;2023-03-23T11:58:32;17.10;99.90
21312;DHT22;18076;52.154;10.570;2023-03-23T12:01:05;17.40;99.90
21312;DHT22;18076;52.154;10.570;2023-03-23T12:03:46;17.80;99.90
21312;DHT22;18076;52.154;10.570;2023-03-23T12:06:13;18.00;99.90
21312;DHT22;18076;52.154;10.570;2023-03-23T12:14:14;18.30;99.90
21312;DHT22;18076;52.154;10.570;2023-03-23T12:19:20;18.50;99.90
21312;DHT22;18076;52.154;10.570;2023-03-23T12:29:19;18.00;99.90
21312;DHT22;18076;52.154;10.570;2023-03-23T12:31:54;17.90;99.90
21312;DHT22;18076;52.154;10.570;2023-03-23T12:34:31;17.90;99.90
21312;DHT22;18076;52.154;10.570;2023-03-23T12:47:22;17.10;99.90
21312;DHT22;18076;52.154;10.570;2023-03-23T12:50:24;17.10;99.90
21312;DHT22;18076;52.154;10.570;2023-03-23T12:55:17;17.40;99.90
21312;DHT22;18076;52.154;10.570;2023-03-23T12:57:58;17.70;99.90
21312;DHT22;18076;52.154;10.570;2023-03-23T13:00:30;17.80;99.90
21312;DHT22;18076;52.154;10.570;2023-03-23T13:03:05;17.50;99.90
21312;DHT22;18076;52.154;10.570;2023-03-23T13:05:38;17.20;99.90
21312;DHT22;18076;52.154;10.570;2023-03-23T13:10:34;16.80;99.90
21312;DHT22;18076;52.154;10.570;2023-03-23T13:13:01;16.70;99.90
21312;DHT22;18076;52.154;10.570;2023-03-23T13:18:04;17.10;99.90
21312;DHT22;18076;52.154;10.570;2023-03-23T13:23:44;17.60;99.90
21312;DHT22;18076;52.154;10.570;2023-03-23T13:28:26;17.60;99.90
21312;DHT22;18076;52.154;10.570;2023-03-23T13:30:54;17.20;99.90
21312;DHT22;18076;52.154;10.570;2023-03-23T13:33:20;16.90;99.90
21312;DHT22;18076;52.154;10.570;2023-03-23T13:35:46;16.60;99.90
21312;DHT22;18076;52.154;10.570;2023-03-23T13:38:18;16.50;99.90
21312;DHT22;18076;52.154;10.570;2023-03-23T13:40:44;16.20;99.90
21312;DHT22;18076;52.154;10.570;2023-03-23T13:43:10;16.10;99.90
21312;DHT22;18076;52.154;10.570;2023-03-23T13:45:44;16.00;99.90
21312;DHT22;18076;52.154;10.570;2023-03-23T13:50:48;15.70;99.90
21312;DHT22;18076;52.154;10.570;2023-03-23T13:53:15;15.50;99.90
21312;DHT22;18076;52.154;10.570;2023-03-23T13:55:51;15.00;99.90
21312;DHT22;18076;52.154;10.570;2023-03-23T13:58:25;14.60;99.90
21312;DHT22;18076;52.154;10.570;2023-03-23T14:03:35;14.00;99.90
21312;DHT22;18076;52.154;10.570;2023-03-23T14:06:05;14.20;99.90
21312;DHT22;18076;52.154;10.570;2023-03-23T14:10:58;15.00;99.90
21312;DHT22;18076;52.154;10.570;2023-03-23T14:13:32;15.20;99.90
21312;DHT22;18076;52.154;10.570;2023-03-23T14:16:05;15.30;99.90
21312;DHT22;18076;52.154;10.570;2023-03-23T14:18:32;15.30;99.90
21312;DHT22;18076;52.154;10.570;2023-03-23T14:21:00;15.30;99.90
21312;DHT22;18076;52.154;10.570;2023-03-23T14:23:26;15.40;99.90
21312;DHT22;18076;52.154;10.570;2023-03-23T14:25:56;15.20;99.90
21312;DHT22;18076;52.154;10.570;2023-03-23T14:28:23;15.20;99.90
21312;DHT22;18076;52.154;10.570;2023-03-23T14:30:52;15.10;99.90
21312;DHT22;18076;52.154;10.570;2023-03-23T14:33:19;15.00;99.90
21312;DHT22;18076;52.154;10.570;2023-03-23T14:35:45;15.00;99.90
21312;DHT22;18076;52.154;10.570;2023-03-23T14:38:21;14.90;99.90
21312;DHT22;18076;52.154;10.570;2023-03-23T14:40:50;14.90;99.90
21312;DHT22;18076;52.154;10.570;2023-03-23T14:43:17;14.80;99.90
21312;DHT22;18076;52.154;10.570;2023-03-23T14:45:43;14.60;99.90
21312;DHT22;18076;52.154;10.570;2023-03-23T14:48:10;14.50;99.90
21312;DHT22;18076;52.154;10.570;2023-03-23T14:50:42;14.30;99.90
21312;DHT22;18076;52.154;10.570;2023-03-23T14:53:16;14.20;99.90
21312;DHT22;18076;52.154;10.570;2023-03-23T14:55:43;14.10;99.90
21312;DHT22;18076;52.154;10.570;2023-03-23T14:58:12;14.20;99.90
21312;DHT22;18076;52.154;10.570;2023-03-23T15:00:39;14.20;99.90
21312;DHT22;18076;52.154;10.570;2023-03-23T15:03:06;14.10;99.90
21312;DHT22;18076;52.154;10.570;2023-03-23T15:05:33;14.10;99.90
21312;DHT22;18076;52.154;10.570;2023-03-23T15:08:24;14.00;99.90
21312;DHT22;18076;52.154;10.570;2023-03-23T15:10:51;14.00;99.90
21312;DHT22;18076;52.154;10.570;2023-03-23T15:13:17;13.90;99.90
21312;DHT22;18076;52.154;10.570;2023-03-23T15:15:43;13.80;99.90
21312;DHT22;18076;52.154;10.570;2023-03-23T15:18:27;13.70;99.90
21312;DHT22;18076;52.154;10.570;2023-03-23T15:20:54;13.70;99.90
21312;DHT22;18076;52.154;10.570;2023-03-23T15:23:27;13.60;99.90
21312;DHT22;18076;52.154;10.570;2023-03-23T15:25:54;13.70;99.90
21312;DHT22;18076;52.154;10.570;2023-03-23T15:28:21;13.80;99.90
21312;DHT22;18076;52.154;10.570;2023-03-23T15:30:48;13.80;99.90
21312;DHT22;18076;52.154;10.570;2023-03-23T15:33:14;13.80;99.90
21312;DHT22;18076;52.154;10.570;2023-03-23T15:35:47;13.70;99.90
21312;DHT22;18076;52.154;10.570;2023-03-23T15:40:52;13.60;99.90
21312;DHT22;18076;52.154;10.570;2023-03-23T15:43:19;13.70;99.90
21312;DHT22;18076;52.154;10.570;2023-03-23T15:48:21;13.70;99.90
21312;DHT22;18076;52.154;10.570;2023-03-23T15:50:47;13.70;99.90
21312;DHT22;18076;52.154;10.570;2023-03-23T15:53:33;13.60;99.90
21312;DHT22;18076;52.154;10.570;2023-03-23T15:56:00;13.60;99.90
21312;DHT22;18076;52.154;10.570;2023-03-23T15:58:26;13.60;99.90
21312;DHT22;18076;52.154;10.570;2023-03-23T16:00:52;13.50;99.90
21312;DHT22;18076;52.154;10.570;2023-03-23T16:03:25;13.50;99.90
21312;DHT22;18076;52.154;10.570;2023-03-23T16:05:52;13.50;99.90
21312;DHT22;18076;52.154;10.570;2023-03-23T16:08:18;13.40;99.90
21312;DHT22;18076;52.154;10.570;2023-03-23T16:10:43;13.40;99.90
21312;DHT22;18076;52.154;10.570;2023-03-23T16:13:09;13.40;99.90
21312;DHT22;18076;52.154;10.570;2023-03-23T16:15:35;13.30;99.90
21312;DHT22;18076;52.154;10.570;2023-03-23T16:18:01;13.20;99.90
21312;DHT22;18076;52.154;10.570;2023-03-23T16:20:27;13.10;99.90
21312;DHT22;18076;52.154;10.570;2023-03-23T16:22:53;13.00;99.90
21312;DHT22;18076;52.154;10.570;2023-03-23T16:25:19;13.00;99.90
21312;DHT22;18076;52.154;10.570;2023-03-23T16:27:45;13.00;99.90
21312;DHT22;18076;52.154;10.570;2023-03-23T16:30:25;12.90;99.90
21312;DHT22;18076;52.154;10.570;2023-03-23T16:32:51;12.80;99.90
21312;DHT22;18076;52.154;10.570;2023-03-23T16:35:16;12.70;99.90
21312;DHT22;18076;52.154;10.570;2023-03-23T16:37:46;12.70;99.90
21312;DHT22;18076;52.154;10.570;2023-03-23T16:40:12;12.60;99.90
21312;DHT22;18076;52.154;10.570;2023-03-23T16:42:38;12.50;99.90
21312;DHT22;18076;52.154;10.570;2023-03-23T16:45:03;12.40;99.90
21312;DHT22;18076;52.154;10.570;2023-03-23T16:47:29;12.40;99.90
21312;DHT22;18076;52.154;10.570;2023-03-23T16:49:55;12.40;99.90
21312;DHT22;18076;52.154;10.570;2023-03-23T16:52:20;12.40;99.90
21312;DHT22;18076;52.154;10.570;2023-03-23T16:54:46;12.40;99.90
21312;DHT22;18076;52.154;10.570;2023-03-23T16:57:11;12.40;99.90
21312;DHT22;18076;52.154;10.570;2023-03-23T16:59:37;12.40;99.90
21312;DHT22;18076;52.154;10.570;2023-03-23T17:02:03;12.30;99.90
21312;DHT22;18076;52.154;10.570;2023-03-23T17:04:29;12.30;99.90
21312;DHT22;18076;52.154;10.570;2023-03-23T17:06:55;12.30;99.90
21312;DHT22;18076;52.154;10.570;2023-03-23T17:09:24;12.30;99.90
21312;DHT22;18076;52.154;10.570;2023-03-23T17:11:49;12.30;99.90